Time;durP1;ratioP1;P1;durP2;ratioP2;P2;SDS_P1;SDS_P2;PMS_P1;PMS_P2;Temp;Humidity;BMP_temperature;BMP_pressure;BME280_temperature;BME280_humidity;BME280_pressure;Samples;Min_cycle;Max_cycle;Signal;HPM_P1;HPM_P2
2021/10/30 00:00:14;;;;;;;50.55;38.03;;;14.60;43.60;;;;;;5033612;28;20034;-59
2021/10/30 00:02:41;;;;;;;53.90;37.92;;;14.50;43.70;;;;;;5033838;28;20120;-60
2021/10/30 00:05:09;;;;;;;49.17;38.25;;;14.50;43.80;;;;;;5034842;28;20033;-60
2021/10/30 00:07:35;;;;;;;54.13;41.33;;;14.40;43.90;;;;;;5039446;28;20479;-60
2021/10/30 00:10:01;;;;;;;48.35;38.05;;;14.40;44.00;;;;;;5034803;28;20030;-60
2021/10/30 00:12:26;;;;;;;50.60;38.92;;;14.40;44.10;;;;;;5044159;28;20471;-60
2021/10/30 00:14:52;;;;;;;51.40;39.08;;;14.40;44.20;;;;;;5054944;28;20031;-60
2021/10/30 00:17:18;;;;;;;47.33;38.22;;;14.30;44.20;;;;;;5052710;28;20516;-60
2021/10/30 00:19:43;;;;;;;51.05;38.10;;;14.40;44.20;;;;;;5054786;28;20025;-60
2021/10/30 00:22:09;;;;;;;48.03;37.67;;;14.40;44.40;;;;;;5045021;28;20083;-60
2021/10/30 00:24:35;;;;;;;50.00;37.97;;;14.30;44.40;;;;;;5034549;28;20025;-60
2021/10/30 00:27:03;;;;;;;48.10;37.65;;;14.30;44.70;;;;;;5033621;28;20087;-60
2021/10/30 00:29:30;;;;;;;56.60;41.65;;;14.30;44.80;;;;;;5034464;28;20024;-60
2021/10/30 00:31:56;;;;;;;53.42;39.03;;;14.20;44.70;;;;;;5032769;28;20108;-60
2021/10/30 00:34:22;;;;;;;54.72;39.72;;;14.20;44.30;;;;;;5035688;28;20100;-60
2021/10/30 00:36:49;;;;;;;48.13;39.40;;;14.30;44.30;;;;;;5033294;28;20025;-60
2021/10/30 00:39:15;;;;;;;51.60;39.13;;;14.40;44.20;;;;;;5034507;28;20033;-61
2021/10/30 00:41:45;;;;;;;48.35;38.13;;;14.40;44.00;;;;;;5033317;28;20179;-60
2021/10/30 00:44:11;;;;;;;49.83;38.85;;;14.40;44.00;;;;;;5032971;28;20036;-61
2021/10/30 00:46:44;;;;;;;53.63;38.90;;;14.50;44.00;;;;;;5034109;28;20026;-61
2021/10/30 00:49:12;;;;;;;53.78;38.67;;;14.40;43.90;;;;;;5052536;28;20025;-60
2021/10/30 00:51:39;;;;;;;47.05;38.03;;;14.50;44.00;;;;;;5050899;28;20026;-60
2021/10/30 00:54:07;;;;;;;49.80;39.60;;;14.50;43.90;;;;;;5054038;28;20485;-60
2021/10/30 00:56:33;;;;;;;53.78;39.80;;;14.60;44.10;;;;;;5049789;28;20507;-60
2021/10/30 00:59:02;;;;;;;55.90;39.75;;;14.60;43.90;;;;;;5033906;28;20032;-60
2021/10/30 01:01:28;;;;;;;51.83;40.35;;;14.50;43.70;;;;;;5031863;28;20037;-60
2021/10/30 01:03:54;;;;;;;55.75;40.53;;;14.60;43.50;;;;;;5050822;28;20028;-60
2021/10/30 01:06:20;;;;;;;52.65;41.83;;;14.60;43.80;;;;;;5032617;28;20450;-60
2021/10/30 01:08:46;;;;;;;54.75;40.28;;;14.50;43.50;;;;;;5032861;28;20475;-60
2021/10/30 01:11:15;;;;;;;54.05;40.45;;;14.50;43.40;;;;;;5033713;28;20071;-60
2021/10/30 01:13:41;;;;;;;54.47;41.83;;;14.60;43.70;;;;;;5032930;28;20021;-61
2021/10/30 01:16:07;;;;;;;54.05;41.40;;;14.60;43.80;;;;;;5026088;28;20033;-61
2021/10/30 01:18:33;;;;;;;55.22;41.97;;;14.70;43.90;;;;;;5042334;28;20033;-60
2021/10/30 01:20:59;;;;;;;57.03;42.55;;;14.70;43.80;;;;;;5033514;28;20029;-60
2021/10/30 01:23:24;;;;;;;56.72;41.35;;;14.70;43.70;;;;;;5047907;28;20414;-61
2021/10/30 01:25:59;;;;;;;55.63;41.88;;;14.60;43.30;;;;;;5053458;28;20103;-61
2021/10/30 01:28:26;;;;;;;;;;;14.60;43.30;;;;;;5051875;28;20028;-61
2021/10/30 01:30:51;;;;;;;53.75;42.15;;;14.60;42.60;;;;;;5053266;28;19911;-61
2021/10/30 01:33:17;;;;;;;55.13;44.08;;;14.60;43.80;;;;;;5037785;28;20112;-61
2021/10/30 01:35:42;;;;;;;53.58;43.03;;;14.60;43.50;;;;;;5033460;28;20028;-61
2021/10/30 01:38:10;;;;;;;56.80;43.05;;;14.70;43.60;;;;;;5044461;28;20044;-61
2021/10/30 01:40:43;;;;;;;57.13;44.28;;;14.70;44.10;;;;;;5053319;28;20083;-61
2021/10/30 01:43:09;;;;;;;56.53;42.17;;;14.70;44.50;;;;;;5050983;28;20031;-61
2021/10/30 01:45:35;;;;;;;53.85;44.20;;;14.70;43.60;;;;;;5052151;28;20104;-60
2021/10/30 01:48:01;;;;;;;62.53;43.83;;;14.70;44.00;;;;;;5030936;28;20145;-60
2021/10/30 01:50:28;;;;;;;57.95;44.15;;;14.70;43.80;;;;;;5033315;28;20036;-61
2021/10/30 01:52:56;;;;;;;54.85;43.45;;;14.70;43.40;;;;;;5042272;28;20021;-61
2021/10/30 01:55:22;;;;;;;61.88;45.20;;;14.70;43.70;;;;;;5053238;28;20063;-60
2021/10/30 01:57:49;;;;;;;57.83;42.38;;;14.70;43.70;;;;;;5042393;28;20049;-60
2021/10/30 02:00:15;;;;;;;59.95;44.47;;;14.70;44.00;;;;;;5032969;28;20022;-60
2021/10/30 02:02:41;;;;;;;60.58;45.15;;;14.70;44.10;;;;;;5038196;28;20037;-60
2021/10/30 02:05:08;;;;;;;61.47;43.95;;;14.70;43.80;;;;;;5052872;28;20483;-61
2021/10/30 02:07:33;;;;;;;58.53;43.03;;;14.80;44.40;;;;;;5044598;28;20075;-60
2021/10/30 02:09:59;;;;;;;57.75;45.17;;;14.70;44.50;;;;;;5033077;28;20483;-60
2021/10/30 02:12:24;;;;;;;56.25;43.03;;;14.70;44.20;;;;;;5037882;28;20464;-60
2021/10/30 02:14:50;;;;;;;60.97;45.17;;;14.80;44.50;;;;;;5037039;28;20039;-61
2021/10/30 02:17:16;;;;;;;61.70;44.45;;;14.70;43.90;;;;;;5050958;28;20521;-61
2021/10/30 02:19:41;;;;;;;62.20;43.00;;;14.80;43.70;;;;;;5036817;28;20096;-61
2021/10/30 02:22:07;;;;;;;56.50;43.97;;;14.80;43.80;;;;;;5037188;28;20414;-61
2021/10/30 02:24:33;;;;;;;59.03;43.08;;;14.80;44.10;;;;;;5056732;28;20068;-60
2021/10/30 02:27:29;;;;;;;59.90;43.25;;;14.80;43.90;;;;;;5054678;28;20020;-60
2021/10/30 02:29:54;;;;;;;59.28;43.08;;;14.70;43.30;;;;;;5056657;28;20036;-61
2021/10/30 02:32:20;;;;;;;54.45;40.63;;;14.70;43.90;;;;;;5050168;28;20041;-61
2021/10/30 02:34:46;;;;;;;59.92;43.60;;;14.60;44.20;;;;;;5036924;28;20029;-61
2021/10/30 02:37:11;;;;;;;59.58;42.10;;;14.60;43.30;;;;;;5035345;28;20042;-61
2021/10/30 02:39:38;;;;;;;55.72;40.60;;;14.60;43.30;;;;;;5036595;28;20036;-61
2021/10/30 02:42:04;;;;;;;56.70;41.45;;;14.50;43.80;;;;;;5035688;28;20045;-60
2021/10/30 02:44:31;;;;;;;56.70;40.58;;;14.50;43.70;;;;;;5036730;28;20021;-61
2021/10/30 02:46:56;;;;;;;54.92;40.08;;;14.50;43.70;;;;;;5035900;28;20500;-60
2021/10/30 02:49:22;;;;;;;53.00;38.53;;;14.50;43.90;;;;;;5035925;28;20097;-61
2021/10/30 02:51:49;;;;;;;53.05;38.78;;;14.50;44.00;;;;;;5034936;28;20029;-61
2021/10/30 02:54:15;;;;;;;62.15;40.15;;;14.40;43.80;;;;;;5034605;28;20071;-61
2021/10/30 02:56:40;;;;;;;49.67;37.97;;;14.40;44.00;;;;;;5036418;28;20037;-61
2021/10/30 02:59:06;;;;;;;53.63;39.70;;;14.40;43.90;;;;;;5051952;28;20036;-61
2021/10/30 03:01:31;;;;;;;54.50;40.22;;;14.30;44.20;;;;;;5052327;28;20079;-61
2021/10/30 03:03:57;;;;;;;55.63;39.20;;;14.30;44.10;;;;;;5050488;28;20022;-61
2021/10/30 03:06:23;;;;;;;48.22;37.90;;;14.20;44.10;;;;;;5047038;28;20037;-60
2021/10/30 03:08:50;;;;;;;50.42;37.00;;;14.30;44.40;;;;;;5040168;28;20025;-61
2021/10/30 03:11:16;;;;;;;48.80;38.95;;;14.40;44.50;;;;;;5034718;28;20060;-61
2021/10/30 03:13:43;;;;;;;50.13;38.42;;;14.40;44.40;;;;;;5047506;28;20445;-61
2021/10/30 03:16:08;;;;;;;51.33;38.75;;;14.30;44.30;;;;;;5055590;28;20090;-61
2021/10/30 03:18:35;;;;;;;53.95;39.25;;;14.30;44.40;;;;;;5042444;28;20029;-61
2021/10/30 03:21:01;;;;;;;51.47;38.28;;;14.30;44.50;;;;;;5034629;28;20152;-61
2021/10/30 03:23:26;;;;;;;51.72;38.33;;;14.30;44.50;;;;;;5031961;28;20109;-60
2021/10/30 03:25:52;;;;;;;52.72;39.20;;;14.30;44.80;;;;;;5034714;28;20022;-60
2021/10/30 03:28:17;;;;;;;51.97;39.25;;;14.40;44.50;;;;;;5042942;28;20060;-60
2021/10/30 03:30:43;;;;;;;53.35;39.30;;;14.40;44.60;;;;;;5053167;28;20018;-60
2021/10/30 03:33:10;;;;;;;51.67;41.60;;;14.40;44.80;;;;;;5034546;28;20095;-60
2021/10/30 03:35:36;;;;;;;50.92;38.08;;;14.40;44.60;;;;;;5035648;28;20337;-60
2021/10/30 03:38:02;;;;;;;57.30;40.50;;;14.40;44.60;;;;;;5040009;28;20055;-60
2021/10/30 03:40:27;;;;;;;53.42;40.45;;;14.30;44.50;;;;;;5055482;28;20033;-61
2021/10/30 03:42:53;;;;;;;53.67;39.22;;;14.30;44.30;;;;;;5049130;28;20030;-61
2021/10/30 03:45:19;;;;;;;52.70;40.05;;;14.20;44.70;;;;;;5035522;28;20018;-61
2021/10/30 03:47:44;;;;;;;56.00;40.38;;;14.20;44.60;;;;;;5034291;28;20353;-61
2021/10/30 03:50:11;;;;;;;55.10;40.88;;;14.20;44.70;;;;;;5035377;28;20022;-61
2021/10/30 03:52:36;;;;;;;53.90;39.47;;;14.10;44.90;;;;;;5035806;28;20064;-60
2021/10/30 03:55:03;;;;;;;55.38;38.97;;;14.10;45.10;;;;;;5055011;28;20435;-60
2021/10/30 03:57:29;;;;;;;56.55;41.75;;;14.20;44.90;;;;;;5027224;28;20022;-59
2021/10/30 03:59:54;;;;;;;54.28;41.15;;;14.20;45.20;;;;;;5033975;28;20383;-60
2021/10/30 04:02:20;;;;;;;58.90;43.15;;;14.00;44.90;;;;;;5034540;28;20037;-60
2021/10/30 04:04:46;;;;;;;52.85;42.03;;;14.10;44.80;;;;;;5034395;28;20025;-60
2021/10/30 04:07:12;;;;;;;54.47;42.20;;;14.10;44.80;;;;;;5034863;28;20031;-60
2021/10/30 04:09:37;;;;;;;56.03;41.90;;;14.10;45.50;;;;;;5033917;28;20025;-60
2021/10/30 04:12:04;;;;;;;55.78;42.72;;;14.10;44.90;;;;;;5034766;28;20021;-61
2021/10/30 04:14:29;;;;;;;56.78;42.13;;;14.20;45.40;;;;;;5049882;28;20029;-61
2021/10/30 04:16:55;;;;;;;57.80;41.90;;;14.10;45.10;;;;;;5054838;28;20074;-61
2021/10/30 04:19:20;;;;;;;58.15;42.85;;;14.10;45.00;;;;;;5037298;28;20056;-61
2021/10/30 04:21:46;;;;;;;62.47;45.20;;;14.10;45.30;;;;;;5031229;28;20068;-61
2021/10/30 04:24:12;;;;;;;56.17;42.53;;;14.00;45.30;;;;;;5026707;28;20038;-61
2021/10/30 04:26:39;;;;;;;60.40;44.47;;;14.10;45.40;;;;;;5033368;28;20477;-62
2021/10/30 04:29:05;;;;;;;56.40;41.42;;;14.10;45.20;;;;;;5034343;28;20048;-61
2021/10/30 04:31:32;;;;;;;56.25;40.97;;;14.10;45.20;;;;;;5025069;28;20402;-60
2021/10/30 04:34:01;;;;;;;57.25;42.13;;;14.10;45.20;;;;;;5025426;28;20032;-61
2021/10/30 04:36:29;;;;;;;56.00;41.80;;;14.00;45.40;;;;;;5033972;28;20029;-61
2021/10/30 04:38:55;;;;;;;57.90;41.95;;;14.00;45.60;;;;;;5032163;28;20049;-61
2021/10/30 04:41:22;;;;;;;58.20;43.15;;;14.00;45.70;;;;;;5033996;28;20064;-61
2021/10/30 04:43:48;;;;;;;57.05;43.42;;;14.00;46.00;;;;;;5033382;28;20483;-61
2021/10/30 04:46:15;;;;;;;58.45;42.00;;;13.90;46.00;;;;;;5034162;28;20021;-61
2021/10/30 04:48:41;;;;;;;57.85;42.97;;;13.80;46.20;;;;;;5033124;28;20356;-61
2021/10/30 04:51:07;;;;;;;55.22;42.65;;;13.90;46.30;;;;;;5034074;28;20025;-61
2021/10/30 04:53:38;;;;;;;53.22;40.33;;;13.80;46.10;;;;;;5039595;28;20119;-61
2021/10/30 04:56:04;;;;;;;57.13;40.30;;;13.80;46.50;;;;;;5049858;28;20036;-61
2021/10/30 04:58:29;;;;;;;54.08;40.92;;;13.80;46.40;;;;;;5044416;28;20025;-61
2021/10/30 05:00:56;;;;;;;54.60;41.20;;;13.80;46.30;;;;;;5053687;28;20037;-61
2021/10/30 05:03:22;;;;;;;58.00;42.75;;;14.00;46.20;;;;;;5050717;28;20025;-61
2021/10/30 05:05:48;;;;;;;52.67;39.38;;;13.90;45.60;;;;;;5037267;28;20030;-60
2021/10/30 05:08:14;;;;;;;52.90;40.53;;;14.00;45.30;;;;;;5032868;28;20525;-60
2021/10/30 05:10:39;;;;;;;57.28;41.13;;;14.00;45.90;;;;;;5033873;28;20021;-60
2021/10/30 05:13:23;;;;;;;55.63;40.45;;;13.90;45.80;;;;;;5035299;28;20519;-60
2021/10/30 05:15:49;;;;;;;55.88;41.08;;;13.90;45.50;;;;;;5053318;28;20021;-60
2021/10/30 05:18:16;;;;;;;54.28;39.78;;;13.90;45.50;;;;;;5046843;28;20120;-61
2021/10/30 05:20:41;;;;;;;58.78;40.28;;;13.90;45.30;;;;;;5031173;28;20127;-60
2021/10/30 05:23:07;;;;;;;54.47;40.22;;;13.90;45.20;;;;;;5031712;28;20116;-60
2021/10/30 05:25:32;;;;;;;54.00;39.50;;;14.00;45.20;;;;;;5039109;28;20025;-60
2021/10/30 05:27:58;;;;;;;56.88;40.97;;;14.00;45.40;;;;;;5051490;28;20485;-60
2021/10/30 05:30:23;;;;;;;54.20;38.75;;;13.90;45.60;;;;;;5053295;28;20025;-60
2021/10/30 05:32:49;;;;;;;55.60;39.33;;;13.90;45.40;;;;;;5052302;28;20023;-60
2021/10/30 05:35:15;;;;;;;50.60;38.80;;;13.80;46.00;;;;;;5052251;28;20017;-60
2021/10/30 05:37:40;;;;;;;57.35;40.55;;;13.80;46.10;;;;;;5051566;28;20106;-60
2021/10/30 05:40:09;;;;;;;54.35;40.35;;;13.70;46.00;;;;;;5033288;28;20026;-60
2021/10/30 05:42:36;;;;;;;54.90;40.20;;;13.80;45.90;;;;;;5032891;28;20495;-60
2021/10/30 05:45:04;;;;;;;58.72;40.03;;;13.80;46.10;;;;;;5031526;28;20029;-60
2021/10/30 05:47:39;;;;;;;52.85;39.63;;;13.70;46.30;;;;;;5033261;28;20079;-59
2021/10/30 05:50:07;;;;;;;58.33;39.83;;;13.80;46.40;;;;;;5032161;28;20117;-60
2021/10/30 05:52:32;;;;;;;49.35;38.42;;;13.80;46.20;;;;;;5032207;28;20491;-60
2021/10/30 05:54:58;;;;;;;58.80;38.83;;;13.80;46.10;;;;;;5046070;28;20032;-60
2021/10/30 05:57:25;;;;;;;55.92;39.95;;;13.90;45.40;;;;;;5034241;28;20183;-60
2021/10/30 05:59:51;;;;;;;55.65;37.83;;;13.80;45.60;;;;;;5031036;28;20184;-61
2021/10/30 06:02:17;;;;;;;50.33;37.28;;;13.80;45.90;;;;;;5032950;28;20047;-61
2021/10/30 06:04:45;;;;;;;54.80;39.75;;;13.80;46.00;;;;;;5031972;28;20463;-60
2021/10/30 06:07:11;;;;;;;52.17;38.50;;;13.90;46.00;;;;;;5032955;28;20083;-60
2021/10/30 06:09:37;;;;;;;50.45;37.47;;;13.80;46.30;;;;;;5045258;28;20033;-60
2021/10/30 06:12:04;;;;;;;53.25;36.15;;;13.80;45.90;;;;;;5053003;28;20482;-61
2021/10/30 06:14:30;;;;;;;52.13;38.28;;;13.90;46.00;;;;;;5028686;28;20025;-61
2021/10/30 06:16:55;;;;;;;53.42;37.45;;;13.90;45.90;;;;;;5029518;28;20084;-60
2021/10/30 06:19:21;;;;;;;50.70;38.42;;;14.00;45.70;;;;;;5023844;28;20141;-60
2021/10/30 06:21:47;;;;;;;56.15;39.40;;;13.80;45.30;;;;;;5031333;28;20068;-60
2021/10/30 06:24:12;;;;;;;54.00;40.30;;;13.80;45.30;;;;;;5041300;28;20048;-60
2021/10/30 06:26:38;;;;;;;53.10;38.20;;;13.80;46.10;;;;;;5050951;28;20043;-60
2021/10/30 06:29:03;;;;;;;52.58;40.00;;;13.80;45.80;;;;;;5050645;28;20025;-60
2021/10/30 06:31:29;;;;;;;51.28;36.72;;;13.80;45.80;;;;;;5052611;28;20474;-60
2021/10/30 06:33:55;;;;;;;52.28;38.30;;;13.80;46.00;;;;;;5050753;28;20025;-60
2021/10/30 06:36:20;;;;;;;56.45;37.72;;;13.80;46.10;;;;;;5052633;28;20086;-60
2021/10/30 06:38:49;;;;;;;57.70;40.35;;;13.90;46.10;;;;;;5045205;28;20053;-60
2021/10/30 06:41:14;;;;;;;52.63;37.92;;;13.90;46.00;;;;;;5032505;28;20132;-60
2021/10/30 06:43:40;;;;;;;55.58;37.97;;;13.80;45.90;;;;;;5035907;28;20478;-60
2021/10/30 06:46:07;;;;;;;58.63;38.47;;;13.80;45.90;;;;;;5052454;28;20111;-60
2021/10/30 06:48:33;;;;;;;48.55;36.35;;;13.90;45.90;;;;;;5036810;28;20031;-60
2021/10/30 06:50:59;;;;;;;51.38;38.47;;;14.00;45.80;;;;;;5032399;28;20021;-60
2021/10/30 06:53:25;;;;;;;52.53;37.35;;;13.90;45.70;;;;;;5031923;28;20033;-60
2021/10/30 06:55:53;;;;;;;51.83;36.83;;;13.90;46.10;;;;;;5031635;28;20033;-60
2021/10/30 06:58:19;;;;;;;53.20;38.47;;;13.90;46.50;;;;;;5051199;28;20036;-60
2021/10/30 07:00:45;;;;;;;54.30;37.28;;;13.80;46.50;;;;;;5036297;28;20033;-59
2021/10/30 07:03:11;;;;;;;46.03;36.03;;;13.90;46.60;;;;;;5033851;28;20056;-59
2021/10/30 07:05:37;;;;;;;53.45;37.92;;;13.90;47.00;;;;;;5054144;28;20036;-60
2021/10/30 07:08:04;;;;;;;51.47;38.13;;;14.00;46.70;;;;;;5056084;28;20029;-60
2021/10/30 07:10:30;;;;;;;53.20;36.90;;;14.00;46.70;;;;;;5034511;28;20120;-60
2021/10/30 07:12:55;;;;;;;49.33;37.67;;;14.00;46.30;;;;;;5035828;28;20091;-61
2021/10/30 07:15:21;;;;;;;52.47;40.50;;;14.10;46.60;;;;;;5052043;28;20041;-60
2021/10/30 07:17:47;;;;;;;60.28;42.40;;;14.00;46.70;;;;;;5055756;28;20025;-60
2021/10/30 07:20:13;;;;;;;54.38;39.58;;;14.10;46.70;;;;;;5038506;28;20379;-61
2021/10/30 07:22:40;;;;;;;61.20;39.50;;;14.20;46.90;;;;;;5032464;28;20654;-61
2021/10/30 07:25:06;;;;;;;54.35;39.42;;;14.30;46.40;;;;;;5032998;28;20044;-61
2021/10/30 07:27:32;;;;;;;61.03;43.03;;;14.30;46.30;;;;;;5035173;28;20029;-60
2021/10/30 07:29:57;;;;;;;61.03;42.38;;;14.50;46.10;;;;;;5034681;28;20032;-61
2021/10/30 07:32:23;;;;;;;57.03;41.53;;;14.50;45.90;;;;;;5034327;28;20067;-60
2021/10/30 07:34:48;;;;;;;54.17;39.17;;;14.50;46.10;;;;;;5034950;28;20033;-60
2021/10/30 07:37:14;;;;;;;58.67;41.90;;;14.50;46.10;;;;;;5035389;28;20033;-60
2021/10/30 07:39:40;;;;;;;56.65;41.60;;;14.60;45.90;;;;;;5034643;28;20041;-60
2021/10/30 07:42:07;;;;;;;58.53;41.58;;;14.50;46.00;;;;;;5035325;28;20037;-61
2021/10/30 07:44:40;;;;;;;56.97;41.65;;;14.60;45.90;;;;;;5032279;28;20026;-61
2021/10/30 07:47:07;;;;;;;56.75;42.10;;;14.60;45.90;;;;;;5015761;28;20021;-60
2021/10/30 07:49:33;;;;;;;56.53;42.88;;;14.60;45.90;;;;;;5034741;28;20112;-61
2021/10/30 07:52:00;;;;;;;53.03;39.78;;;14.60;45.80;;;;;;5037097;28;20029;-60
2021/10/30 07:54:25;;;;;;;58.97;40.58;;;14.50;45.50;;;;;;5034506;28;20149;-60
2021/10/30 07:56:51;;;;;;;54.58;39.90;;;14.60;45.80;;;;;;5034950;28;20029;-61
2021/10/30 07:59:16;;;;;;;51.35;38.50;;;14.70;45.40;;;;;;5034024;28;20352;-61
2021/10/30 08:01:42;;;;;;;54.25;40.40;;;14.60;45.30;;;;;;5033551;28;20044;-61
2021/10/30 08:04:08;;;;;;;57.08;39.97;;;14.70;45.30;;;;;;5037789;28;20017;-61
2021/10/30 08:06:33;;;;;;;56.80;40.72;;;14.60;44.60;;;;;;5054731;28;20025;-61
2021/10/30 08:08:59;;;;;;;52.97;39.33;;;14.50;44.70;;;;;;5049021;28;20022;-61
2021/10/30 08:11:25;;;;;;;54.67;37.17;;;14.60;45.00;;;;;;5034921;28;20025;-60
2021/10/30 08:13:50;;;;;;;52.85;39.20;;;14.70;44.80;;;;;;5032543;28;20115;-61
2021/10/30 08:16:16;;;;;;;57.40;40.80;;;14.70;44.50;;;;;;5034915;28;20056;-61
2021/10/30 08:18:42;;;;;;;52.78;39.30;;;14.70;44.30;;;;;;5032989;28;20033;-60
2021/10/30 08:21:07;;;;;;;58.63;41.13;;;14.70;44.70;;;;;;5040164;28;20037;-61
2021/10/30 08:23:33;;;;;;;54.97;40.15;;;14.70;44.80;;;;;;5038758;28;20099;-60
2021/10/30 08:25:58;;;;;;;58.90;39.78;;;14.50;44.20;;;;;;5031651;28;20033;-61
2021/10/30 08:28:24;;;;;;;60.42;40.88;;;14.60;44.50;;;;;;5018732;28;20018;-61
2021/10/30 08:30:49;;;;;;;53.05;40.20;;;14.70;44.10;;;;;;5049925;28;20471;-61
2021/10/30 08:33:15;;;;;;;53.78;40.53;;;14.90;44.10;;;;;;5054483;28;20474;-61
2021/10/30 08:35:41;;;;;;;56.97;41.05;;;14.90;43.90;;;;;;5035955;28;20112;-61
2021/10/30 08:38:09;;;;;;;55.25;42.35;;;14.70;44.20;;;;;;5033967;28;20413;-61
2021/10/30 08:40:39;;;;;;;57.05;41.45;;;14.60;44.30;;;;;;5047532;28;20103;-61
2021/10/30 08:43:07;;;;;;;59.20;41.80;;;14.70;44.10;;;;;;5054288;28;20428;-61
2021/10/30 08:45:33;;;;;;;57.30;40.70;;;14.80;44.30;;;;;;5035043;28;20164;-61
2021/10/30 08:48:05;;;;;;;54.83;40.65;;;14.90;44.10;;;;;;5033943;28;20510;-61
2021/10/30 08:50:31;;;;;;;53.42;39.67;;;14.90;43.60;;;;;;5047763;28;20390;-60
2021/10/30 08:53:00;;;;;;;56.58;39.83;;;14.80;44.20;;;;;;5054226;28;20043;-60
2021/10/30 08:55:26;;;;;;;60.65;42.70;;;14.80;43.70;;;;;;5038021;28;20022;-61
2021/10/30 08:57:53;;;;;;;56.17;40.60;;;15.00;43.50;;;;;;5034031;28;20032;-61
2021/10/30 09:00:25;;;;;;;56.83;40.10;;;15.00;43.30;;;;;;5032964;28;20044;-61
2021/10/30 09:03:00;;;;;;;52.15;40.13;;;15.10;43.20;;;;;;5032512;28;20045;-61
2021/10/30 09:05:31;;;;;;;60.42;41.15;;;15.10;43.10;;;;;;5031894;28;20029;-61
2021/10/30 09:08:01;;;;;;;56.92;40.67;;;15.10;43.60;;;;;;5033867;28;20057;-61
2021/10/30 09:10:39;;;;;;;53.42;40.40;;;15.20;43.50;;;;;;5030171;28;20526;-60
2021/10/30 09:13:11;;;;;;;59.38;41.97;;;15.10;43.70;;;;;;5019896;28;20079;-61
2021/10/30 09:15:42;;;;;;;64.00;43.17;;;15.20;43.90;;;;;;5046826;28;20108;-60
2021/10/30 09:18:23;;;;;;;58.47;41.25;;;15.20;43.50;;;;;;5034105;28;20082;-61
2021/10/30 09:20:49;;;;;;;60.17;41.72;;;15.30;43.40;;;;;;5031497;28;20037;-61
2021/10/30 09:23:29;;;;;;;58.13;40.78;;;15.20;43.90;;;;;;5030175;28;20495;-61
2021/10/30 09:26:03;;;;;;;55.70;41.75;;;15.40;43.90;;;;;;5025923;28;20053;-61
2021/10/30 09:28:31;;;;;;;53.45;39.63;;;15.50;43.00;;;;;;5032176;28;20029;-60
2021/10/30 09:30:57;;;;;;;53.85;38.00;;;15.70;43.10;;;;;;5031980;28;20030;-61
2021/10/30 09:33:23;;;;;;;53.28;38.42;;;15.90;42.70;;;;;;5032961;28;20030;-61
2021/10/30 09:35:49;;;;;;;59.88;41.38;;;16.00;42.40;;;;;;5032330;28;20433;-61
2021/10/30 09:38:33;;;;;;;58.20;40.05;;;15.90;41.90;;;;;;5033106;28;20056;-61
2021/10/30 09:41:04;;;;;;;53.17;39.63;;;15.80;42.40;;;;;;5049086;28;20135;-61
2021/10/30 09:43:30;;;;;;;53.08;38.47;;;15.80;42.60;;;;;;5034878;28;20045;-61
2021/10/30 09:46:04;;;;;;;51.63;39.00;;;15.90;42.70;;;;;;5048245;28;20048;-61
2021/10/30 09:48:33;;;;;;;57.70;40.00;;;16.00;42.20;;;;;;5052886;28;20021;-61
2021/10/30 09:51:01;;;;;;;51.45;37.78;;;15.90;42.50;;;;;;5035037;28;20025;-60
2021/10/30 09:53:36;;;;;;;55.60;39.40;;;15.90;42.60;;;;;;5029953;28;20501;-61
2021/10/30 09:56:12;;;;;;;52.85;38.00;;;15.90;42.80;;;;;;5029058;28;20512;-62
2021/10/30 09:58:47;;;;;;;53.95;40.53;;;15.70;43.10;;;;;;5036441;28;20100;-61
2021/10/30 10:01:18;;;;;;;55.35;39.78;;;15.60;43.20;;;;;;5047980;28;20608;-61
2021/10/30 10:03:48;;;;;;;57.58;38.75;;;15.60;43.60;;;;;;5052765;28;20393;-61
2021/10/30 10:06:23;;;;;;;52.28;40.08;;;15.70;43.40;;;;;;5028052;28;20352;-61
2021/10/30 10:08:49;;;;;;;;;;;15.80;43.50;;;;;;5013571;28;20018;-61
2021/10/30 10:11:17;;;;;;;53.78;39.65;;;15.50;43.70;;;;;;5030086;28;19909;-61
2021/10/30 10:13:46;;;;;;;56.00;39.88;;;15.30;44.40;;;;;;5031971;28;20606;-61
2021/10/30 10:16:19;;;;;;;55.45;39.70;;;15.30;44.40;;;;;;5032073;28;20033;-61
2021/10/30 10:18:46;;;;;;;57.63;40.17;;;15.20;44.40;;;;;;5032564;28;20120;-62
2021/10/30 10:21:18;;;;;;;55.72;40.67;;;15.40;44.90;;;;;;5031505;28;20087;-61
2021/10/30 10:23:44;;;;;;;55.08;39.25;;;15.60;44.50;;;;;;5032719;28;20033;-62
2021/10/30 10:26:11;;;;;;;55.13;39.25;;;15.60;44.00;;;;;;5047326;28;20035;-61
2021/10/30 10:28:37;;;;;;;55.60;39.75;;;15.70;43.80;;;;;;5052558;28;20033;-61
2021/10/30 10:31:23;;;;;;;56.88;40.85;;;15.90;43.40;;;;;;5036603;28;20429;-61
2021/10/30 10:34:11;;;;;;;53.17;40.17;;;15.80;42.70;;;;;;5036541;28;20053;-61
2021/10/30 10:36:37;;;;;;;52.20;39.08;;;16.00;43.70;;;;;;5035613;28;20029;-61
2021/10/30 10:39:03;;;;;;;50.60;38.78;;;15.90;43.20;;;;;;5035866;28;20103;-61
2021/10/30 10:41:38;;;;;;;54.25;40.65;;;15.90;43.10;;;;;;5052194;28;20040;-61
2021/10/30 10:44:07;;;;;;;53.47;40.20;;;16.00;43.10;;;;;;5045511;28;20048;-61
2021/10/30 10:46:40;;;;;;;52.15;39.72;;;16.00;43.50;;;;;;5035414;28;20034;-62
2021/10/30 10:52:15;;;;;;;50.58;39.22;;;15.90;43.60;;;;;;5017557;28;20088;-61
2021/10/30 10:54:59;;;;;;;52.60;38.95;;;15.80;43.40;;;;;;5033676;28;20083;-61
2021/10/30 10:57:35;;;;;;;49.47;39.75;;;15.80;43.50;;;;;;5016588;28;20034;-61
2021/10/30 11:00:07;;;;;;;50.67;39.00;;;15.70;43.50;;;;;;5016530;28;20056;-61
2021/10/30 11:02:37;;;;;;;52.30;37.72;;;15.60;43.20;;;;;;5036000;28;20037;-60
2021/10/30 11:05:13;;;;;;;53.25;38.88;;;15.60;43.00;;;;;;5032643;28;20061;-60
2021/10/30 11:07:58;;;;;;;52.55;38.35;;;15.20;43.30;;;;;;5027024;28;20041;-60
2021/10/30 11:10:30;;;;;;;50.00;37.42;;;15.30;44.00;;;;;;5020603;28;20144;-61
2021/10/30 11:12:59;;;;;;;51.80;37.35;;;15.40;43.50;;;;;;5035473;28;20097;-61
2021/10/30 11:15:25;;;;;;;49.22;37.45;;;15.40;43.00;;;;;;5033945;28;20036;-61
2021/10/30 11:18:03;;;;;;;55.58;38.63;;;15.30;43.90;;;;;;5035547;28;20025;-61
2021/10/30 11:20:44;;;;;;;51.47;38.72;;;15.30;44.00;;;;;;5040820;28;20109;-61
2021/10/30 11:23:22;;;;;;;49.50;37.03;;;15.40;43.80;;;;;;5041561;28;20104;-60
2021/10/30 11:26:09;;;;;;;45.90;35.20;;;15.50;43.70;;;;;;5034084;28;20029;-61
2021/10/30 11:28:35;;;;;;;57.08;39.33;;;15.60;42.10;;;;;;5034436;28;20057;-61
2021/10/30 11:31:15;;;;;;;52.35;38.60;;;15.40;43.20;;;;;;5033510;28;20029;-61
2021/10/30 11:33:42;;;;;;;49.25;37.00;;;15.50;43.00;;;;;;5034543;28;20079;-62
2021/10/30 11:36:10;;;;;;;50.22;36.53;;;15.60;43.00;;;;;;5028891;28;20034;-61
2021/10/30 11:38:50;;;;;;;53.08;37.67;;;15.60;42.50;;;;;;5034238;28;20126;-61
2021/10/30 11:41:25;;;;;;;49.42;37.70;;;15.60;41.70;;;;;;5033841;28;20136;-61
2021/10/30 11:44:10;;;;;;;47.13;35.20;;;15.60;41.60;;;;;;5014276;28;20515;-61
2021/10/30 11:46:40;;;;;;;50.58;37.05;;;15.60;41.80;;;;;;5026094;28;20029;-61
2021/10/30 11:49:07;;;;;;;53.25;38.92;;;15.70;41.50;;;;;;5034316;28;20033;-61
2021/10/30 11:51:35;;;;;;;50.30;37.92;;;15.60;41.30;;;;;;5043646;28;20037;-61
2021/10/30 11:54:02;;;;;;;52.47;37.85;;;15.40;41.80;;;;;;5047257;28;20104;-61
2021/10/30 11:56:29;;;;;;;47.75;37.42;;;15.40;41.80;;;;;;5033204;28;20045;-61
2021/10/30 11:59:02;;;;;;;47.13;34.88;;;15.60;41.20;;;;;;5035141;28;20028;-61
2021/10/30 12:01:43;;;;;;;46.08;35.25;;;15.50;38.90;;;;;;5036248;28;20095;-61
2021/10/30 12:04:24;;;;;;;49.08;36.78;;;15.60;41.10;;;;;;5035043;28;20105;-61
2021/10/30 12:06:55;;;;;;;48.85;36.30;;;15.70;41.50;;;;;;5033939;28;20030;-61
2021/10/30 12:09:33;;;;;;;50.03;36.45;;;15.70;41.50;;;;;;5030605;28;20510;-61
2021/10/30 12:12:00;;;;;;;49.05;37.45;;;15.40;42.40;;;;;;5025652;28;20037;-61
2021/10/30 12:14:30;;;;;;;45.58;36.63;;;15.50;43.40;;;;;;5033588;28;20037;-61
2021/10/30 12:17:16;;;;;;;47.75;35.38;;;15.50;44.00;;;;;;5045299;28;20107;-60
2021/10/30 12:19:46;;;;;;;46.10;34.95;;;15.20;41.30;;;;;;5035407;28;20037;-61
2021/10/30 12:22:23;;;;;;;47.45;35.97;;;15.10;43.10;;;;;;5039908;28;20048;-61
2021/10/30 12:25:07;;;;;;;48.53;36.63;;;15.20;44.90;;;;;;5047592;28;20422;-61
2021/10/30 12:27:39;;;;;;;49.45;36.15;;;15.10;43.50;;;;;;5035391;28;20049;-61
2021/10/30 12:30:12;;;;;;;49.60;37.17;;;15.10;43.00;;;;;;5029659;28;20028;-61
2021/10/30 12:32:48;;;;;;;57.85;38.25;;;15.10;43.10;;;;;;5032253;28;20022;-61
2021/10/30 12:35:21;;;;;;;49.17;36.55;;;15.20;44.90;;;;;;5031484;28;20032;-61